Afton, California
Current Conditions -  °F | °C
As of 12:53 AM on Thursday 23 Oct 2014 (Local Time) from KOVE Reporting Station
Clear Clear  
Wind Chill: 65°   Ceiling: Unl
Heat Index: 65°   Visibility: 10mi
Dew Point: 47°   Wind: 5mph
Humidity: 52%   Direction: 80°E
Pressure: 30.02"   Gusts: NA
Location:  39.4608°N, 121.937°W
Report Text: KOVE 230753Z AUTO 08004KT 10SM CLR 18/08 A3002 RMK AO2 SLP167 T01830083 402330094 $
Loading
Personal Weather Stations






























Interactive Weather Map
Tropical Storm Tracking
New forecast layout! Learn more

10-Day Weather Forecast

Advertisements
Track Severe Weather on mobile